Terminal Aerodrome Forecast
Issued by NWS Twin Cities, MN

Home | Current Version | Previous Version | Graphics & Text | Print | Product List | Glossary On
Versions: 1 2 3 4 5 6 7 8 9 10 11 12 13 14 15 16 17 18 19 20 21 22 23 24 25 26 27
913
FTUS43 KMPX 142321
TAFMSP
TAF
KMSP 142321Z 1500/1606 03011KT 5SM -SHRA BR OVC007
     FM150300 36013G20KT 4SM -DZ BR OVC007
     FM150700 33017G26KT P6SM -DZ SCT008 OVC015
     FM151100 32014G20KT P6SM BKN050
     FM151600 31010KT P6SM SCT025 BKN050
     FM152000 28009KT P6SM SCT050 BKN100=

USA.gov is the U.S. government's official web portal to all federal, state and local government web resources and services.